Time;durP1;ratioP1;P1;durP2;ratioP2;P2;SDS_P1;SDS_P2;PMS_P1;PMS_P2;Temp;Humidity;BMP_temperature;BMP_pressure;BME280_temperature;BME280_humidity;BME280_pressure;Samples;Min_cycle;Max_cycle;Signal;HPM_P1;HPM_P2
2023/08/02 00:02:35;;;;;;;2.80;1.70;;;24.80;63.20;;;;;;219590;1273;22552;-58
2023/08/02 00:07:39;;;;;;;1.40;1.30;;;24.80;63.40;;;;;;219562;1276;25309;-60
2023/08/02 00:12:48;;;;;;;1.90;1.60;;;24.70;63.20;;;;;;219593;1280;22797;-58
2023/08/02 00:17:52;;;;;;;2.50;1.40;;;24.80;63.30;;;;;;219639;1280;22545;-59
2023/08/02 00:22:57;;;;;;;2.00;1.40;;;24.70;63.50;;;;;;219671;1281;23459;-58
2023/08/02 00:28:01;;;;;;;1.90;1.50;;;24.70;63.40;;;;;;219296;1279;22522;-59
2023/08/02 00:33:05;;;;;;;2.30;1.40;;;24.70;63.50;;;;;;219367;1283;23708;-59
2023/08/02 00:38:09;;;;;;;2.20;1.60;;;24.60;63.60;;;;;;219597;1280;24243;-58
2023/08/02 00:43:14;;;;;;;1.50;1.40;;;24.60;63.60;;;;;;219392;1271;22536;-61
2023/08/02 00:48:18;;;;;;;2.00;1.60;;;24.60;64.40;;;;;;219189;1280;22541;-60
2023/08/02 00:53:23;;;;;;;1.50;1.40;;;24.70;63.70;;;;;;219222;1271;22908;-62
2023/08/02 00:58:29;;;;;;;2.30;1.80;;;24.70;63.90;;;;;;219400;1283;22763;-62
2023/08/02 01:03:39;;;;;;;1.90;1.70;;;24.70;63.70;;;;;;219606;1274;22552;-63
2023/08/02 01:08:50;;;;;;;1.90;1.40;;;24.60;63.70;;;;;;219519;1280;22892;-61
2023/08/02 01:13:56;;;;;;;1.60;1.20;;;24.60;63.90;;;;;;219489;1280;22542;-61
2023/08/02 01:19:01;;;;;;;1.30;1.20;;;24.60;64.10;;;;;;219610;1283;22661;-62
2023/08/02 01:24:06;;;;;;;1.70;1.60;;;24.60;63.70;;;;;;219400;1274;22539;-64
2023/08/02 01:29:20;;;;;;;1.50;1.30;;;24.60;63.40;;;;;;219488;1273;25382;-63
2023/08/02 01:34:24;;;;;;;4.00;1.70;;;24.60;63.80;;;;;;219410;1283;22582;-60
2023/08/02 01:39:28;;;;;;;1.80;1.60;;;24.60;63.90;;;;;;219377;1276;22645;-61
2023/08/02 01:44:33;;;;;;;1.50;1.20;;;24.60;63.60;;;;;;219410;1280;22544;-63
2023/08/02 01:49:37;;;;;;;2.10;1.30;;;24.60;64.00;;;;;;219572;1286;23351;-62
2023/08/02 01:54:42;;;;;;;1.60;1.30;;;24.50;63.50;;;;;;219457;1274;22637;-62
2023/08/02 01:59:47;;;;;;;2.60;1.50;;;24.50;63.90;;;;;;219659;1274;22534;-62
2023/08/02 02:04:51;;;;;;;2.10;1.40;;;24.50;63.80;;;;;;219659;1273;24230;-61
2023/08/02 02:09:55;;;;;;;1.50;1.10;;;24.50;63.60;;;;;;219462;1280;22659;-62
2023/08/02 02:14:59;;;;;;;1.60;1.30;;;24.60;63.70;;;;;;219144;1280;516017;-62
2023/08/02 02:20:04;;;;;;;1.30;1.20;;;24.50;63.70;;;;;;219333;1274;22526;-63
2023/08/02 02:25:09;;;;;;;2.90;1.40;;;24.50;63.60;;;;;;219472;1283;25496;-61
2023/08/02 02:30:13;;;;;;;1.40;1.30;;;24.50;63.80;;;;;;219578;1282;22671;-63
2023/08/02 02:35:17;;;;;;;1.60;1.20;;;24.50;63.80;;;;;;219397;1283;22542;-63
2023/08/02 02:40:21;;;;;;;1.90;1.20;;;24.50;63.90;;;;;;219295;1277;25329;-63
2023/08/02 02:45:25;;;;;;;1.30;1.20;;;24.50;63.70;;;;;;219156;1283;22533;-61
2023/08/02 02:50:29;;;;;;;2.40;1.10;;;24.50;64.10;;;;;;219207;1274;23875;-61
2023/08/02 02:55:33;;;;;;;0.90;0.90;;;24.50;63.70;;;;;;221575;1283;22653;-61
2023/08/02 03:00:38;;;;;;;1.70;1.50;;;24.60;63.90;;;;;;219754;1280;23032;-57
2023/08/02 03:05:42;;;;;;;1.10;1.00;;;24.50;63.50;;;;;;219367;1277;22527;-58
2023/08/02 03:10:46;;;;;;;2.80;1.40;;;24.50;63.60;;;;;;219447;1273;25371;-59
2023/08/02 03:15:51;;;;;;;1.00;1.00;;;24.50;63.80;;;;;;219564;1280;22652;-58
2023/08/02 03:20:55;;;;;;;1.20;1.10;;;24.50;63.80;;;;;;219598;1286;22799;-59
2023/08/02 03:25:59;;;;;;;3.00;1.20;;;24.40;63.70;;;;;;219348;1276;26202;-58
2023/08/02 03:31:03;;;;;;;1.80;1.10;;;24.40;63.60;;;;;;219171;1286;25449;-58
2023/08/02 03:36:07;;;;;;;2.40;1.20;;;24.40;64.10;;;;;;219457;1279;24984;-59
2023/08/02 03:41:11;;;;;;;1.70;1.40;;;24.40;63.70;;;;;;219400;1281;24278;-58
2023/08/02 03:46:16;;;;;;;1.40;1.30;;;24.40;63.70;;;;;;219244;1283;22514;-59
2023/08/02 03:51:20;;;;;;;0.90;0.90;;;24.40;63.50;;;;;;219523;1273;24308;-62
2023/08/02 03:56:24;;;;;;;1.50;1.20;;;24.40;63.60;;;;;;219444;1274;24141;-58
2023/08/02 04:01:28;;;;;;;0.90;0.90;;;24.40;63.60;;;;;;219510;1283;22657;-58
2023/08/02 04:06:32;;;;;;;1.10;1.10;;;24.40;63.60;;;;;;219391;1283;25480;-58
2023/08/02 04:11:37;;;;;;;1.40;1.20;;;24.40;63.60;;;;;;219321;1283;22526;-59
2023/08/02 04:16:42;;;;;;;1.10;1.10;;;24.40;63.60;;;;;;219506;1280;24695;-59
2023/08/02 04:21:48;;;;;;;2.60;1.00;;;24.40;63.70;;;;;;219379;1283;24133;-57
2023/08/02 04:26:52;;;;;;;1.20;1.10;;;24.30;63.50;;;;;;219440;1279;26327;-59
2023/08/02 04:31:56;;;;;;;1.60;1.00;;;24.40;63.60;;;;;;222377;1283;24135;-57
2023/08/02 04:37:00;;;;;;;1.40;0.90;;;24.40;63.30;;;;;;221828;1271;22543;-59
2023/08/02 04:42:05;;;;;;;0.80;0.80;;;24.50;63.10;;;;;;219395;1281;22797;-58
2023/08/02 04:47:09;;;;;;;1.90;0.90;;;24.50;63.20;;;;;;219360;1280;22604;-65
2023/08/02 04:52:13;;;;;;;1.30;0.90;;;24.40;63.40;;;;;;219369;1283;24374;-58
2023/08/02 04:57:17;;;;;;;1.10;1.00;;;24.40;63.30;;;;;;219424;1283;22643;-58
2023/08/02 05:02:25;;;;;;;1.00;1.00;;;24.30;63.40;;;;;;219401;1286;22683;-58
2023/08/02 05:07:34;;;;;;;1.00;0.80;;;24.40;63.50;;;;;;219258;1286;25296;-57
2023/08/02 05:12:42;;;;;;;1.30;1.20;;;24.30;63.60;;;;;;219467;1281;22538;-59
2023/08/02 05:17:46;;;;;;;0.90;0.90;;;24.30;63.60;;;;;;219454;1283;22751;-58
2023/08/02 05:22:50;;;;;;;1.90;1.00;;;24.40;62.80;;;;;;219689;1284;24221;-59
2023/08/02 05:27:55;;;;;;;4.70;1.40;;;24.50;63.20;;;;;;219522;1280;22518;-59
2023/08/02 05:32:59;;;;;;;2.80;1.10;;;24.50;63.80;;;;;;219560;1279;22630;-57
2023/08/02 05:38:04;;;;;;;3.30;1.10;;;24.40;63.40;;;;;;219433;1287;22537;-52
2023/08/02 05:43:08;;;;;;;4.30;1.40;;;24.40;63.90;;;;;;219350;1277;22996;-51
2023/08/02 05:48:12;;;;;;;1.70;1.10;;;24.40;63.50;;;;;;219286;1280;24208;-52
2023/08/02 05:53:16;;;;;;;1.90;1.40;;;24.40;63.20;;;;;;220158;1286;24399;-51
2023/08/02 05:58:21;;;;;;;1.40;0.90;;;24.50;63.20;;;;;;219567;1283;22524;-53
2023/08/02 06:03:25;;;;;;;2.20;1.10;;;24.50;63.20;;;;;;219513;1286;22527;-51
2023/08/02 06:08:30;;;;;;;3.30;1.50;;;24.50;63.20;;;;;;219376;1280;22529;-52
2023/08/02 06:13:34;;;;;;;1.60;1.30;;;24.40;63.40;;;;;;219383;1286;22534;-53
2023/08/02 06:18:38;;;;;;;2.70;1.40;;;24.50;63.60;;;;;;219264;1280;22520;-50
2023/08/02 06:23:42;;;;;;;2.50;1.10;;;24.50;63.80;;;;;;219532;1286;22527;-50
2023/08/02 06:28:47;;;;;;;2.60;0.90;;;24.50;63.50;;;;;;219119;1280;24394;-50
2023/08/02 06:33:52;;;;;;;1.10;1.00;;;24.70;63.30;;;;;;219270;1286;22526;-57
2023/08/02 06:38:56;;;;;;;5.20;1.10;;;24.70;62.70;;;;;;219127;1286;22534;-57
2023/08/02 06:44:00;;;;;;;5.30;1.30;;;24.70;63.00;;;;;;219389;1286;22572;-58
2023/08/02 06:49:04;;;;;;;5.00;1.20;;;24.70;62.90;;;;;;218957;1289;22698;-57
2023/08/02 06:54:08;;;;;;;3.20;1.00;;;24.70;63.50;;;;;;218385;1290;24775;-55
2023/08/02 06:59:12;;;;;;;2.00;1.00;;;24.70;63.60;;;;;;218622;1289;22683;-55
2023/08/02 07:04:17;;;;;;;5.90;1.10;;;24.70;63.60;;;;;;218768;1280;25602;-44
2023/08/02 07:09:21;;;;;;;1.50;1.20;;;24.80;63.50;;;;;;218714;1291;24226;-47
2023/08/02 07:14:25;;;;;;;1.60;1.20;;;24.80;63.30;;;;;;219319;1276;26074;-46
2023/08/02 07:19:30;;;;;;;3.40;1.40;;;24.80;63.10;;;;;;219223;1286;22526;-51
2023/08/02 07:24:34;;;;;;;2.50;1.70;;;24.80;63.30;;;;;;219212;1283;23554;-51
2023/08/02 07:29:38;;;;;;;2.70;1.20;;;24.90;62.80;;;;;;219130;1286;22664;-49
2023/08/02 07:34:42;;;;;;;2.90;1.40;;;24.90;62.80;;;;;;219402;1280;23956;-47
2023/08/02 07:39:46;;;;;;;2.90;1.10;;;24.90;62.80;;;;;;219324;1274;22767;-49
2023/08/02 07:45:08;;;;;;;1.70;1.00;;;24.90;63.20;;;;;;219131;1283;22534;-51
2023/08/02 07:50:12;;;;;;;0.90;0.80;;;25.00;62.70;;;;;;219286;1283;22549;-54
2023/08/02 07:55:17;;;;;;;1.40;0.80;;;25.00;63.50;;;;;;219181;1280;22535;-50
2023/08/02 08:00:22;;;;;;;3.00;1.30;;;25.00;62.60;;;;;;219288;1286;22541;-48
2023/08/02 08:05:29;;;;;;;4.70;1.10;;;25.00;63.60;;;;;;219284;1271;25261;-49
2023/08/02 08:10:33;;;;;;;2.70;0.80;;;24.90;63.70;;;;;;219403;1283;22551;-50
2023/08/02 08:15:37;;;;;;;3.20;1.40;;;25.00;65.00;;;;;;219124;1286;22571;-47
2023/08/02 08:20:42;;;;;;;2.80;1.10;;;25.10;64.60;;;;;;219263;1281;22540;-48
2023/08/02 08:25:46;;;;;;;3.60;1.20;;;25.20;64.70;;;;;;219125;1281;22596;-47
2023/08/02 08:30:59;;;;;;;3.80;1.30;;;25.10;65.50;;;;;;219208;1286;22546;-49
2023/08/02 08:36:03;;;;;;;2.80;1.30;;;25.10;65.10;;;;;;219416;1282;25290;-48
2023/08/02 08:41:13;;;;;;;1.70;1.10;;;25.30;64.90;;;;;;219351;1280;24295;-49
2023/08/02 08:46:18;;;;;;;3.10;1.10;;;25.20;64.70;;;;;;219185;1280;22656;-51
2023/08/02 08:51:24;;;;;;;4.10;1.20;;;25.20;64.70;;;;;;219048;1266;22563;-48
2023/08/02 08:56:29;;;;;;;5.40;1.30;;;25.20;64.70;;;;;;219396;1280;22652;-53
2023/08/02 09:01:34;;;;;;;2.90;1.90;;;25.20;64.20;;;;;;219279;1285;22831;-53
2023/08/02 09:06:38;;;;;;;9.90;1.50;;;25.20;64.90;;;;;;219317;1285;24181;-49
2023/08/02 09:11:43;;;;;;;4.60;1.60;;;25.30;64.30;;;;;;219412;1274;22651;-52
2023/08/02 09:17:01;;;;;;;10.10;1.70;;;25.30;64.50;;;;;;219258;1283;22724;-51
2023/08/02 09:22:16;;;;;;;9.60;1.90;;;25.30;63.80;;;;;;219229;1270;22521;-53
2023/08/02 09:27:20;;;;;;;18.10;5.10;;;25.40;64.00;;;;;;219345;1280;25411;-53
2023/08/02 09:32:26;;;;;;;4.80;1.70;;;25.60;63.70;;;;;;219472;1264;22594;-49
2023/08/02 09:37:32;;;;;;;4.90;1.90;;;25.60;64.00;;;;;;219192;1285;22670;-57
2023/08/02 09:42:37;;;;;;;7.70;1.70;;;25.60;63.20;;;;;;219137;1285;24218;-51
2023/08/02 09:47:50;;;;;;;13.50;1.80;;;25.40;63.60;;;;;;219252;1283;22645;-52
2023/08/02 09:52:55;;;;;;;7.50;2.40;;;25.40;63.80;;;;;;219346;1283;24235;-53
2023/08/02 09:58:00;;;;;;;11.90;3.10;;;25.50;63.40;;;;;;219212;1280;24250;-53
2023/08/02 10:03:09;;;;;;;13.10;4.10;;;25.70;63.80;;;;;;219544;1286;24036;-53
2023/08/02 10:08:31;;;;;;;15.10;4.40;;;25.60;64.50;;;;;;219394;1280;23821;-53
2023/08/02 10:13:38;;;;;;;7.70;3.10;;;25.70;66.90;;;;;;219322;1277;23056;-52
2023/08/02 10:18:44;;;;;;;20.70;4.50;;;25.60;65.70;;;;;;219472;1283;24607;-52
2023/08/02 10:23:49;;;;;;;7.70;3.30;;;25.60;65.20;;;;;;219425;1276;24245;-53
2023/08/02 10:28:54;;;;;;;8.00;2.70;;;25.60;65.30;;;;;;219327;1285;22540;-54
2023/08/02 10:33:58;;;;;;;6.50;3.00;;;25.70;64.70;;;;;;219194;1288;24221;-48
2023/08/02 10:39:03;;;;;;;8.20;2.90;;;25.70;63.90;;;;;;219171;1280;24865;-53
2023/08/02 10:44:12;;;;;;;7.80;2.90;;;25.70;64.20;;;;;;218988;1285;22548;-54
2023/08/02 10:49:16;;;;;;;10.80;3.50;;;25.70;63.50;;;;;;219468;1280;22693;-51
2023/08/02 10:54:23;;;;;;;9.40;2.90;;;25.60;65.10;;;;;;219213;1267;24247;-52
2023/08/02 10:59:30;;;;;;;9.10;2.60;;;25.80;65.50;;;;;;219323;1287;22627;-51
2023/08/02 11:04:37;;;;;;;12.20;3.30;;;25.80;65.10;;;;;;219184;1280;24034;-54
2023/08/02 11:09:42;;;;;;;14.40;3.30;;;25.80;65.30;;;;;;219415;1283;24227;-54
2023/08/02 11:14:50;;;;;;;15.00;2.90;;;25.90;65.20;;;;;;219089;1280;22527;-52
2023/08/02 11:19:54;;;;;;;8.70;2.90;;;25.90;65.20;;;;;;219209;1280;22545;-54
2023/08/02 11:25:01;;;;;;;11.90;2.70;;;26.00;64.80;;;;;;219313;1278;22772;-50
2023/08/02 11:30:07;;;;;;;6.10;2.70;;;25.90;64.40;;;;;;219303;1283;22974;-57
2023/08/02 11:35:19;;;;;;;3.80;2.00;;;26.00;62.00;;;;;;219201;1280;22549;-52
2023/08/02 11:40:35;;;;;;;4.60;2.30;;;26.00;58.30;;;;;;219085;1284;24240;-53
2023/08/02 11:45:40;;;;;;;5.40;2.00;;;26.00;59.70;;;;;;219604;1280;22547;-54
2023/08/02 11:50:44;;;;;;;6.00;2.10;;;26.10;59.30;;;;;;219267;1285;22537;-52
2023/08/02 11:55:49;;;;;;;6.30;1.90;;;26.00;58.30;;;;;;219267;1283;22661;-55
2023/08/02 12:00:53;;;;;;;4.00;1.90;;;26.00;59.30;;;;;;219154;1284;24252;-54
2023/08/02 12:06:00;;;;;;;6.30;1.70;;;26.20;56.90;;;;;;219329;1286;22569;-54
2023/08/02 12:11:14;;;;;;;1.80;1.30;;;26.20;55.40;;;;;;219318;1285;22632;-54
2023/08/02 12:16:18;;;;;;;3.60;1.30;;;26.00;54.10;;;;;;219308;1280;22540;-54
2023/08/02 12:21:25;;;;;;;2.50;1.60;;;26.00;53.90;;;;;;219366;1280;22721;-53
2023/08/02 12:26:31;;;;;;;1.80;1.20;;;26.00;53.50;;;;;;219214;1286;22535;-53
2023/08/02 12:31:46;;;;;;;1.90;1.50;;;26.00;54.30;;;;;;219339;1287;23025;-52
2023/08/02 12:36:51;;;;;;;3.40;1.50;;;26.00;53.70;;;;;;219133;1279;22542;-53
2023/08/02 12:41:56;;;;;;;3.30;1.30;;;26.00;53.60;;;;;;219229;1283;23006;-52
2023/08/02 12:47:00;;;;;;;1.90;1.60;;;25.80;54.10;;;;;;219193;1283;25339;-50
2023/08/02 12:52:05;;;;;;;2.80;1.50;;;25.90;54.10;;;;;;219354;1287;23023;-52
2023/08/02 12:57:09;;;;;;;1.60;1.30;;;25.90;54.90;;;;;;219467;1274;22540;-53
2023/08/02 13:02:13;;;;;;;1.60;1.50;;;26.00;55.40;;;;;;219469;1271;22527;-53
2023/08/02 13:07:17;;;;;;;2.30;1.30;;;26.00;55.30;;;;;;219224;1283;22530;-50
2023/08/02 13:12:22;;;;;;;2.30;1.70;;;26.10;55.50;;;;;;219428;1273;24336;-55
2023/08/02 13:17:38;;;;;;;1.70;1.30;;;26.10;55.70;;;;;;219278;1285;24081;-51
2023/08/02 13:22:43;;;;;;;2.60;1.90;;;26.20;55.80;;;;;;219473;1287;24287;-52
2023/08/02 13:27:47;;;;;;;2.70;1.40;;;26.20;56.10;;;;;;219180;1287;22557;-51
2023/08/02 13:32:51;;;;;;;1.60;1.50;;;26.10;56.60;;;;;;218995;1286;24397;-52
2023/08/02 13:37:56;;;;;;;1.60;1.50;;;26.20;56.40;;;;;;219143;1280;23904;-52
2023/08/02 13:43:00;;;;;;;1.70;1.40;;;26.20;56.40;;;;;;219417;1280;25450;-51
2023/08/02 13:48:05;;;;;;;1.30;1.20;;;26.20;56.50;;;;;;219213;1286;25212;-49
2023/08/02 13:53:11;;;;;;;2.50;1.60;;;26.30;56.60;;;;;;219298;1286;22554;-52
2023/08/02 13:58:17;;;;;;;1.40;1.30;;;26.30;56.90;;;;;;219346;1273;24401;-52
2023/08/02 14:03:21;;;;;;;1.60;1.40;;;26.30;56.60;;;;;;219350;1280;24857;-54
2023/08/02 14:08:25;;;;;;;1.90;1.50;;;26.20;56.80;;;;;;219139;1283;22542;-53
2023/08/02 14:13:29;;;;;;;4.10;1.70;;;26.10;57.40;;;;;;219160;1283;222924;-55
2023/08/02 14:18:33;;;;;;;1.70;1.50;;;26.10;58.10;;;;;;219170;1286;22543;-53
2023/08/02 14:23:38;;;;;;;2.40;1.30;;;26.20;57.80;;;;;;219153;1286;22758;-50
2023/08/02 14:28:42;;;;;;;4.30;1.70;;;26.20;58.60;;;;;;219040;1279;22541;-54
2023/08/02 14:33:46;;;;;;;2.20;1.30;;;26.30;57.90;;;;;;219225;1283;22578;-53
2023/08/02 14:38:52;;;;;;;1.70;1.40;;;26.30;57.90;;;;;;219221;1286;22565;-52
2023/08/02 14:43:57;;;;;;;2.00;1.40;;;26.20;58.20;;;;;;219395;1264;25431;-52
2023/08/02 14:49:01;;;;;;;6.40;1.40;;;26.30;57.80;;;;;;219057;1286;22603;-54
2023/08/02 14:54:06;;;;;;;1.60;1.10;;;26.20;57.20;;;;;;219433;1280;22537;-53
2023/08/02 14:59:16;;;;;;;1.80;1.50;;;26.00;57.90;;;;;;219228;1283;22530;-54
2023/08/02 15:04:20;;;;;;;1.40;1.30;;;26.10;58.10;;;;;;219218;1283;22527;-55
2023/08/02 15:09:30;;;;;;;1.40;1.30;;;26.20;57.60;;;;;;219475;1270;22737;-51
2023/08/02 15:14:34;;;;;;;1.20;1.10;;;26.10;57.70;;;;;;218990;1283;22571;-53
2023/08/02 15:19:38;;;;;;;1.70;1.10;;;26.20;58.00;;;;;;219381;1276;24792;-54
2023/08/02 15:24:42;;;;;;;4.10;1.40;;;26.20;57.80;;;;;;219188;1283;24761;-50
2023/08/02 15:29:47;;;;;;;18.70;3.10;;;26.30;57.80;;;;;;219506;1283;24740;-50
2023/08/02 15:34:51;;;;;;;11.80;3.50;;;26.30;62.70;;;;;;219387;1283;22689;-52
2023/08/02 15:39:55;;;;;;;4.70;1.60;;;26.30;62.60;;;;;;219554;1272;22530;-49
2023/08/02 15:44:59;;;;;;;7.10;1.80;;;26.30;59.80;;;;;;219458;1283;22553;-51
2023/08/02 15:50:06;;;;;;;6.20;1.70;;;26.30;59.60;;;;;;219194;1283;24284;-51
2023/08/02 15:55:12;;;;;;;6.20;1.80;;;26.30;59.50;;;;;;219343;1283;27444;-50
2023/08/02 16:00:17;;;;;;;6.20;1.70;;;26.40;61.30;;;;;;219336;1283;25268;-50
2023/08/02 16:05:23;;;;;;;8.90;1.90;;;26.40;61.70;;;;;;219373;1283;25397;-52
2023/08/02 16:10:27;;;;;;;6.00;1.60;;;26.20;60.90;;;;;;219261;1278;25223;-47
2023/08/02 16:15:32;;;;;;;6.00;1.50;;;26.20;60.60;;;;;;219420;1286;24254;-50
2023/08/02 16:20:36;;;;;;;3.20;1.60;;;26.30;60.60;;;;;;219352;1287;24375;-50
2023/08/02 16:25:42;;;;;;;5.10;1.60;;;26.20;60.40;;;;;;219355;1280;24214;-50
2023/08/02 16:30:51;;;;;;;4.70;2.10;;;26.20;60.30;;;;;;219315;1280;22677;-53
2023/08/02 16:35:59;;;;;;;3.70;1.50;;;26.20;60.10;;;;;;219633;1277;22542;-46
2023/08/02 16:41:05;;;;;;;2.50;1.60;;;26.20;60.10;;;;;;219501;1273;22534;-48
2023/08/02 16:46:10;;;;;;;1.80;1.50;;;26.10;60.10;;;;;;219384;1286;22526;-51
2023/08/02 16:51:14;;;;;;;5.90;1.70;;;26.10;59.70;;;;;;219596;1280;22532;-52
2023/08/02 16:56:28;;;;;;;2.10;1.70;;;26.10;60.00;;;;;;219441;1274;22534;-49
2023/08/02 17:01:33;;;;;;;3.90;1.50;;;26.10;59.70;;;;;;219255;1285;23922;-48
2023/08/02 17:06:37;;;;;;;4.30;1.40;;;26.10;59.50;;;;;;219534;1283;22504;-50
2023/08/02 17:11:42;;;;;;;4.30;2.00;;;26.00;59.90;;;;;;219465;1280;24088;-50
2023/08/02 17:16:48;;;;;;;2.60;1.40;;;26.00;59.60;;;;;;219178;1286;22506;-51
2023/08/02 17:21:53;;;;;;;2.10;1.40;;;26.00;59.80;;;;;;219440;1283;25341;-52
2023/08/02 17:26:58;;;;;;;2.80;1.70;;;26.00;59.60;;;;;;219362;1278;22762;-49
2023/08/02 17:32:03;;;;;;;2.20;1.50;;;26.00;59.60;;;;;;219404;1279;25303;-48
2023/08/02 17:37:08;;;;;;;3.30;1.40;;;26.00;59.60;;;;;;219513;1283;22624;-50
2023/08/02 17:42:13;;;;;;;1.90;1.40;;;26.00;59.50;;;;;;219461;1286;24307;-50
2023/08/02 17:47:18;;;;;;;2.00;1.30;;;26.00;59.50;;;;;;219318;1276;22663;-50
2023/08/02 17:52:23;;;;;;;2.60;1.30;;;25.90;59.50;;;;;;219371;1287;24287;-50
2023/08/02 17:57:28;;;;;;;3.10;1.50;;;25.90;59.40;;;;;;219448;1280;24334;-50
2023/08/02 18:02:35;;;;;;;3.50;1.40;;;26.00;59.40;;;;;;219607;1280;22521;-51
2023/08/02 18:07:40;;;;;;;2.60;1.70;;;25.90;59.50;;;;;;219441;1273;24250;-49
2023/08/02 18:12:46;;;;;;;1.90;1.30;;;25.90;59.50;;;;;;219632;1280;22533;-50
2023/08/02 18:17:51;;;;;;;2.40;1.50;;;25.90;59.50;;;;;;219615;1280;25683;-49
2023/08/02 18:22:55;;;;;;;2.20;1.20;;;25.90;59.40;;;;;;219603;1282;22537;-50
2023/08/02 18:28:01;;;;;;;1.30;1.20;;;25.90;59.80;;;;;;219507;1286;25424;-46
2023/08/02 18:33:07;;;;;;;1.30;1.10;;;25.90;59.40;;;;;;219688;1280;22536;-49
2023/08/02 18:38:11;;;;;;;1.70;1.40;;;25.80;59.30;;;;;;219543;1276;24218;-50
2023/08/02 18:43:22;;;;;;;1.30;1.20;;;25.90;59.50;;;;;;219808;1283;22537;-49
2023/08/02 18:48:27;;;;;;;2.20;1.20;;;25.90;59.40;;;;;;219538;1280;22615;-50
2023/08/02 18:53:32;;;;;;;1.90;1.00;;;25.90;59.30;;;;;;219350;1276;24227;-48
2023/08/02 18:58:36;;;;;;;1.30;1.00;;;25.80;59.40;;;;;;219631;1283;22559;-48
2023/08/02 19:03:42;;;;;;;1.80;1.50;;;25.90;59.80;;;;;;219553;1274;24293;-48
2023/08/02 19:08:49;;;;;;;1.80;1.30;;;25.80;59.30;;;;;;219371;1286;22669;-50
2023/08/02 19:13:54;;;;;;;2.70;1.20;;;25.80;59.60;;;;;;219540;1280;22559;-49
2023/08/02 19:19:00;;;;;;;2.50;1.40;;;25.80;59.30;;;;;;219407;1274;23903;-52
2023/08/02 19:24:09;;;;;;;1.30;1.20;;;25.80;59.30;;;;;;219560;1273;24323;-52
2023/08/02 19:29:20;;;;;;;2.20;1.50;;;25.80;59.30;;;;;;219353;1283;25421;-48
2023/08/02 19:34:30;;;;;;;1.50;1.20;;;25.80;59.30;;;;;;219605;1286;24205;-51
2023/08/02 19:39:37;;;;;;;1.40;1.20;;;25.80;59.30;;;;;;219546;1283;22759;-50
2023/08/02 19:44:52;;;;;;;2.50;1.20;;;25.80;59.20;;;;;;219783;1280;22632;-50
2023/08/02 19:50:02;;;;;;;1.50;1.40;;;25.90;59.00;;;;;;219626;1280;22590;-50
2023/08/02 19:55:10;;;;;;;1.20;1.10;;;25.80;59.30;;;;;;219450;1283;24231;-50
2023/08/02 20:00:21;;;;;;;1.90;1.30;;;25.80;59.20;;;;;;219566;1280;25350;-48
2023/08/02 20:05:52;;;;;;;1.50;1.40;;;25.80;59.40;;;;;;219463;1280;25509;-54
2023/08/02 20:11:02;;;;;;;1.80;1.30;;;25.80;59.30;;;;;;219479;1272;23095;-53
2023/08/02 20:16:19;;;;;;;1.10;1.00;;;25.80;59.30;;;;;;219656;1280;24241;-53
2023/08/02 20:21:27;;;;;;;1.30;0.90;;;25.70;59.30;;;;;;219309;1286;22667;-53
2023/08/02 20:26:32;;;;;;;1.10;1.00;;;25.70;59.60;;;;;;219690;1273;22664;-54
2023/08/02 20:31:40;;;;;;;1.20;1.10;;;25.80;59.60;;;;;;219473;1282;22544;-53
2023/08/02 20:36:53;;;;;;;1.70;1.60;;;25.80;59.20;;;;;;219610;1286;22665;-54
2023/08/02 20:41:57;;;;;;;2.20;1.50;;;25.70;59.20;;;;;;219374;1283;24401;-52
2023/08/02 20:47:02;;;;;;;1.00;1.00;;;25.70;59.30;;;;;;219468;1273;22559;-52
2023/08/02 20:52:09;;;;;;;1.50;1.40;;;25.80;59.50;;;;;;219486;1280;23939;-54
2023/08/02 20:57:17;;;;;;;1.50;1.40;;;25.70;59.40;;;;;;219466;1273;22614;-52
2023/08/02 21:02:23;;;;;;;1.30;1.10;;;25.70;59.50;;;;;;219471;1285;22562;-54
2023/08/02 21:07:27;;;;;;;1.30;1.10;;;25.70;59.40;;;;;;219499;1280;25631;-53
2023/08/02 21:12:35;;;;;;;3.00;1.30;;;25.70;59.40;;;;;;219434;1283;25303;-54
2023/08/02 21:17:43;;;;;;;1.40;1.00;;;25.70;59.40;;;;;;219522;1286;22553;-56
2023/08/02 21:22:47;;;;;;;1.40;1.30;;;25.70;59.70;;;;;;219465;1286;22890;-53
2023/08/02 21:27:51;;;;;;;1.60;1.40;;;25.70;59.40;;;;;;219254;1286;22533;-54
2023/08/02 21:32:56;;;;;;;1.40;1.20;;;25.70;59.40;;;;;;219637;1280;23298;-55
2023/08/02 21:38:00;;;;;;;1.30;1.20;;;25.70;59.30;;;;;;219418;1283;22525;-53
2023/08/02 21:43:05;;;;;;;1.00;0.90;;;25.70;59.30;;;;;;219344;1283;22543;-55
2023/08/02 21:48:09;;;;;;;1.90;0.90;;;25.70;59.70;;;;;;219573;1283;25387;-54
2023/08/02 21:53:20;;;;;;;1.40;1.20;;;25.60;59.50;;;;;;219501;1285;24411;-54
2023/08/02 21:58:35;;;;;;;1.40;1.30;;;25.70;59.40;;;;;;219371;1280;22531;-50
2023/08/02 22:03:41;;;;;;;0.80;0.80;;;25.60;59.40;;;;;;219443;1283;22484;-50
2023/08/02 22:08:46;;;;;;;1.40;1.30;;;25.60;59.30;;;;;;219498;1274;22800;-50
2023/08/02 22:13:51;;;;;;;1.20;1.10;;;25.60;59.50;;;;;;219347;1283;24206;-53
2023/08/02 22:18:55;;;;;;;1.50;1.40;;;25.50;59.40;;;;;;219509;1274;25345;-54
2023/08/02 22:23:59;;;;;;;1.00;1.00;;;25.60;59.50;;;;;;219454;1283;22643;-47
2023/08/02 22:29:04;;;;;;;1.60;1.20;;;25.60;59.40;;;;;;219478;1283;23578;-50
2023/08/02 22:34:08;;;;;;;1.30;0.90;;;25.60;59.30;;;;;;219431;1283;23362;-51
2023/08/02 22:39:12;;;;;;;1.30;1.20;;;25.60;59.40;;;;;;219380;1280;22622;-50
2023/08/02 22:44:17;;;;;;;1.20;1.10;;;25.60;59.50;;;;;;219232;1283;22547;-48
2023/08/02 22:49:21;;;;;;;1.80;1.40;;;25.60;59.30;;;;;;219517;1287;22539;-51
2023/08/02 22:54:30;;;;;;;1.30;1.20;;;25.50;59.90;;;;;;219510;1273;24329;-50
2023/08/02 22:59:34;;;;;;;1.00;1.00;;;25.60;59.50;;;;;;219439;1283;22652;-50
2023/08/02 23:04:38;;;;;;;1.40;1.30;;;25.60;59.40;;;;;;219590;1283;25295;-50
2023/08/02 23:09:43;;;;;;;1.50;1.40;;;25.60;59.30;;;;;;219412;1280;22780;-50
2023/08/02 23:14:57;;;;;;;2.10;1.90;;;25.60;59.70;;;;;;219543;1283;24228;-48
2023/08/02 23:20:03;;;;;;;1.10;1.00;;;25.50;59.50;;;;;;219565;1283;23050;-50
2023/08/02 23:25:11;;;;;;;1.70;1.60;;;25.50;59.60;;;;;;219460;1283;22650;-52
2023/08/02 23:30:19;;;;;;;2.10;1.20;;;25.50;59.70;;;;;;219369;1283;22540;-51
2023/08/02 23:35:23;;;;;;;1.60;1.20;;;25.40;60.10;;;;;;219482;1281;22658;-52
2023/08/02 23:40:27;;;;;;;1.10;1.10;;;25.40;59.90;;;;;;219428;1273;24233;-49
2023/08/02 23:45:31;;;;;;;1.50;1.40;;;25.40;59.80;;;;;;219315;1283;25437;-48
2023/08/02 23:50:35;;;;;;;1.30;1.10;;;25.40;59.70;;;;;;219569;1274;22612;-50
2023/08/02 23:55:40;;;;;;;1.10;1.10;;;25.50;59.80;;;;;;219490;1283;22550;-51
